Time;durP1;ratioP1;P1;durP2;ratioP2;P2;SDS_P1;SDS_P2;PMS_P1;PMS_P2;Temp;Humidity;BMP_temperature;BMP_pressure;BME280_temperature;BME280_humidity;BME280_pressure;Samples;Min_cycle;Max_cycle;Signal;HPM_P1;HPM_P2
2022/04/27 00:00:51;;;;;;;0.10;0.10;;;8.30;99.90;;;;;;5018625;28;20285;-73
2022/04/27 00:03:17;;;;;;;0.10;0.10;;;8.20;99.90;;;;;;5052650;28;20029;-73
2022/04/27 00:05:43;;;;;;;0.10;0.10;;;8.00;99.90;;;;;;5052439;28;20528;-73
2022/04/27 00:08:09;;;;;;;0.10;0.10;;;8.00;99.90;;;;;;5034867;28;20033;-73
2022/04/27 00:10:34;;;;;;;0.10;0.10;;;7.90;99.90;;;;;;5052518;28;20032;-73
2022/04/27 00:13:00;;;;;;;0.10;0.10;;;8.00;99.90;;;;;;5034444;28;20017;-73
2022/04/27 00:15:28;;;;;;;0.10;0.10;;;8.00;99.90;;;;;;5052306;28;20112;-73
2022/04/27 00:17:54;;;;;;;0.90;0.90;;;8.10;99.90;;;;;;5052416;28;20031;-73
2022/04/27 00:20:20;;;;;;;0.10;0.10;;;8.00;99.90;;;;;;5052288;28;20103;-73
2022/04/27 00:22:46;;;;;;;0.98;0.98;;;7.90;99.90;;;;;;5052309;28;20049;-73
2022/04/27 00:25:12;;;;;;;0.55;0.55;;;8.00;99.90;;;;;;5034494;28;20020;-73
2022/04/27 00:27:37;;;;;;;0.43;0.40;;;8.10;99.90;;;;;;5051894;28;20032;-73
2022/04/27 00:30:04;;;;;;;0.40;0.40;;;8.10;99.90;;;;;;5052206;28;20091;-73
2022/04/27 00:32:30;;;;;;;0.32;0.32;;;8.00;99.90;;;;;;5034256;28;20028;-73
2022/04/27 00:34:55;;;;;;;0.10;0.10;;;8.10;99.90;;;;;;5034456;28;20035;-73
2022/04/27 00:37:21;;;;;;;0.20;0.20;;;8.10;99.90;;;;;;5034009;28;20369;-73
2022/04/27 00:39:47;;;;;;;0.10;0.10;;;7.90;99.90;;;;;;5051751;28;20029;-73
2022/04/27 00:42:13;;;;;;;0.15;0.15;;;8.00;99.90;;;;;;5034297;28;20029;-73
2022/04/27 00:44:43;;;;;;;0.10;0.10;;;8.10;99.90;;;;;;5051971;28;20025;-73
2022/04/27 00:47:10;;;;;;;0.20;0.20;;;8.20;99.90;;;;;;5051711;28;20124;-73
2022/04/27 00:49:37;;;;;;;0.10;0.10;;;8.20;99.90;;;;;;5051939;28;20447;-73
2022/04/27 00:52:03;;;;;;;0.17;0.17;;;8.10;99.90;;;;;;5051865;28;20036;-73
2022/04/27 00:54:30;;;;;;;0.20;0.20;;;8.10;99.90;;;;;;5051894;28;20039;-73
2022/04/27 00:56:55;;;;;;;0.10;0.10;;;8.10;99.90;;;;;;5051462;28;20138;-73
2022/04/27 00:59:23;;;;;;;0.10;0.10;;;8.00;99.90;;;;;;5034007;28;20100;-73
2022/04/27 01:01:48;;;;;;;0.40;0.40;;;8.00;99.90;;;;;;5054104;28;20064;-73
2022/04/27 01:04:14;;;;;;;0.10;0.10;;;8.00;99.90;;;;;;5056045;28;20052;-73
2022/04/27 01:06:41;;;;;;;0.30;0.30;;;7.90;99.90;;;;;;5038114;28;20059;-73
2022/04/27 01:09:07;;;;;;;0.17;0.17;;;8.00;99.90;;;;;;5055964;28;20480;-73
2022/04/27 01:11:33;;;;;;;0.10;0.10;;;7.90;99.90;;;;;;5055791;28;20029;-73
2022/04/27 01:13:58;;;;;;;0.10;0.10;;;7.90;99.90;;;;;;5037960;28;20078;-73
2022/04/27 01:16:25;;;;;;;0.10;0.10;;;7.90;99.90;;;;;;5037675;28;20116;-73
2022/04/27 01:18:51;;;;;;;0.28;0.28;;;7.90;99.90;;;;;;5055765;28;20024;-73
2022/04/27 01:21:17;;;;;;;0.20;0.20;;;7.90;99.90;;;;;;5055676;28;20385;-73
2022/04/27 01:23:43;;;;;;;0.10;0.10;;;8.00;99.90;;;;;;5055576;28;20676;-73
2022/04/27 01:26:09;;;;;;;0.15;0.15;;;8.00;99.90;;;;;;5055334;28;20031;-73
2022/04/27 01:28:37;;;;;;;0.10;0.10;;;8.00;99.90;;;;;;5055500;28;20071;-73
2022/04/27 01:31:05;;;;;;;0.17;0.17;;;8.00;99.90;;;;;;5055585;28;20362;-73
2022/04/27 01:33:34;;;;;;;1.70;1.60;;;8.00;99.90;;;;;;5037681;28;20035;-73
2022/04/27 01:36:00;;;;;;;0.13;0.13;;;7.90;99.90;;;;;;5037258;28;20330;-73
2022/04/27 01:38:27;;;;;;;0.10;0.10;;;7.70;99.90;;;;;;5037387;28;20017;-73
2022/04/27 01:40:55;;;;;;;0.10;0.10;;;7.70;99.90;;;;;;5055410;28;20112;-73
2022/04/27 01:43:24;;;;;;;0.38;0.38;;;7.80;99.90;;;;;;5055315;28;20028;-73
2022/04/27 01:45:50;;;;;;;0.10;0.10;;;7.70;99.90;;;;;;5054921;28;20021;-72
2022/04/27 01:48:17;;;;;;;0.10;0.10;;;7.60;99.90;;;;;;5037270;28;20642;-73
2022/04/27 01:50:42;;;;;;;2.75;1.38;;;7.50;99.90;;;;;;5037381;28;20051;-73
2022/04/27 01:55:53;;;;;;;0.20;0.20;;;7.40;99.90;;;;;;5036873;28;20033;-73
2022/04/27 01:58:19;;;;;;;0.47;0.47;;;7.40;99.90;;;;;;5055006;28;20033;-73
2022/04/27 02:00:48;;;;;;;0.10;0.10;;;7.30;99.90;;;;;;5055048;28;20021;-73
2022/04/27 02:03:15;;;;;;;0.10;0.10;;;7.30;99.90;;;;;;5036993;28;20025;-72
2022/04/27 02:05:41;;;;;;;0.43;0.43;;;7.30;99.90;;;;;;5054596;28;20385;-73
2022/04/27 02:08:07;;;;;;;0.95;0.43;;;7.30;99.90;;;;;;5037087;28;20074;-73
2022/04/27 02:10:34;;;;;;;1.05;1.05;;;7.20;99.90;;;;;;5036848;28;20111;-73
2022/04/27 02:13:05;;;;;;;1.55;1.45;;;7.10;99.90;;;;;;5053919;28;20020;-73
2022/04/27 02:15:31;;;;;;;3.10;1.85;;;7.10;99.90;;;;;;5054750;28;20025;-73
2022/04/27 02:17:57;;;;;;;0.57;0.57;;;7.10;99.90;;;;;;5036512;28;20032;-73
2022/04/27 02:20:23;;;;;;;0.20;0.20;;;7.20;99.90;;;;;;5036661;28;20025;-73
2022/04/27 02:22:50;;;;;;;0.10;0.10;;;7.30;99.90;;;;;;5054527;28;20025;-73
2022/04/27 02:25:16;;;;;;;1.85;0.65;;;7.30;99.90;;;;;;5036516;28;20484;-73
2022/04/27 02:27:43;;;;;;;0.13;0.13;;;7.30;99.90;;;;;;5054034;28;20106;-73
2022/04/27 02:30:10;;;;;;;2.78;2.60;;;7.30;99.90;;;;;;5036525;28;20496;-73
2022/04/27 02:32:39;;;;;;;0.20;0.20;;;7.20;99.90;;;;;;5036533;28;20029;-73
2022/04/27 02:35:06;;;;;;;2.75;0.40;;;7.30;99.90;;;;;;5054341;28;20033;-73
2022/04/27 02:37:32;;;;;;;0.10;0.10;;;7.20;99.90;;;;;;5035947;28;20025;-73
2022/04/27 02:39:59;;;;;;;0.20;0.20;;;7.20;99.90;;;;;;5054133;28;20092;-73
2022/04/27 02:42:26;;;;;;;0.95;0.95;;;7.10;99.90;;;;;;5036443;28;20526;-73
2022/04/27 02:44:52;;;;;;;0.52;0.52;;;7.10;99.90;;;;;;5054190;28;20040;-73
2022/04/27 02:47:18;;;;;;;0.10;0.10;;;7.10;99.90;;;;;;5053862;28;20025;-73
2022/04/27 02:52:32;;;;;;;0.43;0.43;;;7.00;99.90;;;;;;5054062;28;20033;-73
2022/04/27 02:54:57;;;;;;;0.15;0.15;;;7.10;99.90;;;;;;5053876;28;20021;-73
2022/04/27 02:57:23;;;;;;;2.17;1.05;;;7.10;99.90;;;;;;5053666;28;20108;-73
2022/04/27 02:59:49;;;;;;;0.17;0.17;;;7.00;99.90;;;;;;5036061;28;20061;-73
2022/04/27 03:02:15;;;;;;;1.95;1.85;;;7.00;99.90;;;;;;5053801;28;20068;-73
2022/04/27 03:04:42;;;;;;;0.20;0.20;;;6.90;99.90;;;;;;5053663;28;20079;-73
2022/04/27 03:07:08;;;;;;;0.17;0.17;;;6.90;99.90;;;;;;5053476;28;20033;-73
2022/04/27 03:09:34;;;;;;;1.75;1.63;;;6.90;99.90;;;;;;5053582;28;20024;-73
2022/04/27 03:12:00;;;;;;;0.20;0.20;;;6.90;99.90;;;;;;5053636;28;20547;-72
2022/04/27 03:14:28;;;;;;;1.63;0.60;;;6.90;99.90;;;;;;5053666;28;20032;-73
2022/04/27 03:16:55;;;;;;;0.38;0.38;;;6.80;99.90;;;;;;5018796;28;20051;-73
2022/04/27 03:19:21;;;;;;;0.28;0.28;;;6.70;99.90;;;;;;5053433;28;20025;-73
2022/04/27 03:21:47;;;;;;;1.10;0.80;;;6.70;99.90;;;;;;5053424;28;20083;-73
2022/04/27 03:24:13;;;;;;;0.15;0.15;;;6.70;99.90;;;;;;5034730;28;20021;-73
2022/04/27 03:26:39;;;;;;;1.27;1.23;;;6.70;99.90;;;;;;5035084;28;20048;-73
2022/04/27 03:29:05;;;;;;;0.10;0.10;;;6.70;99.90;;;;;;5035545;28;20035;-73
2022/04/27 03:31:32;;;;;;;0.38;0.38;;;6.80;99.90;;;;;;5035441;28;20029;-73
2022/04/27 03:33:58;;;;;;;0.10;0.10;;;6.80;99.90;;;;;;5035326;28;20035;-73
2022/04/27 03:36:25;;;;;;;1.48;1.38;;;6.80;99.90;;;;;;5052839;28;20029;-73
2022/04/27 03:38:51;;;;;;;1.75;1.65;;;6.90;99.90;;;;;;5052917;28;20013;-73
2022/04/27 03:41:20;;;;;;;0.10;0.10;;;7.00;99.90;;;;;;5053059;28;20036;-73
2022/04/27 03:43:46;;;;;;;0.10;0.10;;;6.90;99.90;;;;;;5035090;28;20032;-73
2022/04/27 03:46:12;;;;;;;0.52;0.40;;;6.90;99.90;;;;;;5052604;28;20025;-73
2022/04/27 03:48:38;;;;;;;0.50;0.50;;;6.90;99.90;;;;;;5034935;28;20112;-73
2022/04/27 03:51:04;;;;;;;0.40;0.40;;;6.80;99.90;;;;;;5052797;28;20025;-73
2022/04/27 03:53:30;;;;;;;0.50;0.50;;;6.80;99.90;;;;;;5052707;28;20044;-73
2022/04/27 03:55:56;;;;;;;1.55;1.20;;;6.80;99.90;;;;;;5052286;28;20044;-73
2022/04/27 03:58:22;;;;;;;0.60;0.55;;;6.80;99.90;;;;;;5052588;28;20528;-73
2022/04/27 04:00:48;;;;;;;0.20;0.20;;;6.80;99.90;;;;;;5052576;28;20112;-73
2022/04/27 04:03:14;;;;;;;0.73;0.73;;;6.90;99.90;;;;;;5034674;28;20103;-73
2022/04/27 04:05:41;;;;;;;0.10;0.10;;;6.90;99.90;;;;;;5034596;28;20032;-73
2022/04/27 04:08:07;;;;;;;0.20;0.20;;;7.00;99.90;;;;;;5052284;28;20028;-73
2022/04/27 04:10:33;;;;;;;0.20;0.20;;;7.10;99.90;;;;;;5052421;28;20163;-74
2022/04/27 04:12:59;;;;;;;0.30;0.30;;;7.10;99.90;;;;;;5052233;28;20048;-74
2022/04/27 04:15:24;;;;;;;0.15;0.15;;;7.20;99.90;;;;;;5052359;28;20086;-74
2022/04/27 04:17:50;;;;;;;0.10;0.10;;;7.30;99.90;;;;;;5052128;28;20043;-73
2022/04/27 04:20:17;;;;;;;0.38;0.38;;;7.40;99.90;;;;;;5052445;28;20027;-74
2022/04/27 04:22:44;;;;;;;1.42;0.88;;;7.40;99.90;;;;;;5052234;28;20476;-73
2022/04/27 04:30:39;;;;;;;0.10;0.10;;;7.20;99.90;;;;;;5052070;28;20040;-73
2022/04/27 04:33:04;;;;;;;0.10;0.10;;;7.30;99.90;;;;;;5034125;28;20025;-74
2022/04/27 04:35:30;;;;;;;0.43;0.43;;;7.40;99.90;;;;;;5051623;28;20035;-74
2022/04/27 04:37:56;;;;;;;0.35;0.35;;;7.50;99.90;;;;;;5051454;28;20104;-74
2022/04/27 04:40:22;;;;;;;2.72;0.50;;;7.60;99.90;;;;;;5052271;28;20032;-74
2022/04/27 04:42:47;;;;;;;0.10;0.10;;;7.60;99.90;;;;;;5051957;28;20039;-74
2022/04/27 04:45:14;;;;;;;0.10;0.10;;;7.60;99.90;;;;;;5052031;28;20017;-74
2022/04/27 04:47:42;;;;;;;0.30;0.30;;;7.60;99.90;;;;;;5051753;28;20380;-74
2022/04/27 04:50:09;;;;;;;0.40;0.40;;;7.50;99.90;;;;;;5034031;28;20466;-74
2022/04/27 04:52:35;;;;;;;0.10;0.10;;;7.40;99.90;;;;;;5051928;28;20380;-74
2022/04/27 04:55:01;;;;;;;0.10;0.10;;;7.60;99.90;;;;;;5051748;28;20032;-74
2022/04/27 04:57:27;;;;;;;0.10;0.10;;;7.60;99.90;;;;;;5033575;28;20485;-74
2022/04/27 04:59:52;;;;;;;0.13;0.13;;;7.50;99.90;;;;;;5034003;28;20052;-74
2022/04/27 05:02:18;;;;;;;0.10;0.10;;;7.50;99.90;;;;;;5051773;28;20618;-74
2022/04/27 05:04:44;;;;;;;0.20;0.20;;;7.50;99.90;;;;;;5033843;28;20056;-74
2022/04/27 05:07:10;;;;;;;0.20;0.20;;;7.50;99.90;;;;;;5033632;28;20028;-74
2022/04/27 05:09:36;;;;;;;0.10;0.10;;;7.50;99.90;;;;;;5034008;28;20480;-74
2022/04/27 05:12:02;;;;;;;0.10;0.10;;;7.60;99.90;;;;;;5033891;28;20026;-74
2022/04/27 05:14:27;;;;;;;0.10;0.10;;;7.60;99.90;;;;;;5051599;28;20029;-74
2022/04/27 05:16:53;;;;;;;1.17;1.02;;;7.70;99.90;;;;;;5033389;28;20481;-74
2022/04/27 05:19:19;;;;;;;0.10;0.10;;;7.60;99.90;;;;;;5048957;28;20025;-74
2022/04/27 05:21:45;;;;;;;0.10;0.10;;;7.60;99.90;;;;;;5051498;28;20021;-74
2022/04/27 05:24:11;;;;;;;0.10;0.10;;;7.70;99.90;;;;;;5051132;28;20029;-74
2022/04/27 05:26:37;;;;;;;0.10;0.10;;;7.80;99.90;;;;;;5049919;28;20021;-74
2022/04/27 05:31:57;;;;;;;0.10;0.10;;;7.80;99.90;;;;;;5051250;28;20109;-73
2022/04/27 05:34:25;;;;;;;0.10;0.10;;;7.80;99.90;;;;;;5031360;28;20039;-73
2022/04/27 05:36:51;;;;;;;0.82;0.82;;;7.70;99.90;;;;;;5052455;28;20021;-73
2022/04/27 05:39:18;;;;;;;0.20;0.20;;;7.70;99.90;;;;;;5050655;28;20096;-73
2022/04/27 05:41:45;;;;;;;0.10;0.10;;;7.80;99.90;;;;;;5049934;28;20021;-73
2022/04/27 05:44:12;;;;;;;0.10;0.10;;;7.90;99.90;;;;;;5050229;28;20025;-73
2022/04/27 05:46:38;;;;;;;0.43;0.43;;;8.00;99.90;;;;;;5049916;28;20475;-74
2022/04/27 05:49:04;;;;;;;0.13;0.13;;;8.00;99.90;;;;;;5053229;28;20052;-73
2022/04/27 05:51:29;;;;;;;0.10;0.10;;;7.90;99.90;;;;;;5054843;28;20061;-73
2022/04/27 05:53:55;;;;;;;0.10;0.10;;;8.00;99.90;;;;;;5054688;28;20056;-73
2022/04/27 05:56:22;;;;;;;0.80;0.77;;;8.00;99.90;;;;;;5052490;28;20424;-73
2022/04/27 05:58:48;;;;;;;0.10;0.10;;;8.00;99.90;;;;;;5054569;28;20021;-73
2022/04/27 06:01:14;;;;;;;0.70;0.70;;;8.10;99.90;;;;;;5054187;28;20021;-73
2022/04/27 06:03:40;;;;;;;0.10;0.10;;;8.10;99.90;;;;;;5054456;28;20028;-73
2022/04/27 06:06:06;;;;;;;0.10;0.10;;;8.20;99.90;;;;;;5037463;28;20052;-73
2022/04/27 06:08:32;;;;;;;0.10;0.10;;;8.20;99.90;;;;;;5054624;28;20044;-73
2022/04/27 06:10:57;;;;;;;0.20;0.20;;;8.20;99.90;;;;;;5053999;28;20017;-73
2022/04/27 06:13:24;;;;;;;0.25;0.25;;;8.30;99.90;;;;;;5054499;28;20025;-73
2022/04/27 06:15:50;;;;;;;0.88;0.65;;;8.40;99.90;;;;;;5055574;28;20023;-73
2022/04/27 06:18:16;;;;;;;0.10;0.10;;;8.20;99.90;;;;;;5045766;28;20020;-74
2022/04/27 06:20:42;;;;;;;1.38;1.15;;;8.20;99.90;;;;;;5059754;28;20028;-73
2022/04/27 06:23:09;;;;;;;0.30;0.30;;;7.90;99.90;;;;;;5051399;28;20025;-74
2022/04/27 06:25:36;;;;;;;4.28;3.13;;;7.90;99.90;;;;;;5042294;28;20036;-74
2022/04/27 06:28:02;;;;;;;3.97;2.13;;;7.80;99.90;;;;;;5054040;28;20071;-73
2022/04/27 06:30:28;;;;;;;1.88;0.57;;;7.80;99.90;;;;;;5053667;28;20083;-73
2022/04/27 06:32:54;;;;;;;0.10;0.10;;;7.80;99.90;;;;;;5061055;28;20124;-73
2022/04/27 06:35:20;;;;;;;0.13;0.13;;;7.90;99.90;;;;;;5068220;28;20027;-73
2022/04/27 06:37:46;;;;;;;0.10;0.10;;;8.20;99.90;;;;;;5053715;28;20029;-73
2022/04/27 06:40:12;;;;;;;11.73;11.02;;;8.20;99.90;;;;;;5053627;28;20021;-74
2022/04/27 06:42:44;;;;;;;1.60;0.47;;;8.30;99.90;;;;;;5035772;28;20444;-73
2022/04/27 06:45:11;;;;;;;0.30;0.30;;;8.20;99.90;;;;;;5035503;28;20384;-73
2022/04/27 06:47:37;;;;;;;0.10;0.10;;;8.40;99.90;;;;;;5035950;28;20021;-73
2022/04/27 06:50:03;;;;;;;0.10;0.10;;;8.50;99.90;;;;;;5053844;28;20033;-74
2022/04/27 06:52:28;;;;;;;0.32;0.32;;;8.90;99.90;;;;;;5053862;28;20138;-73
2022/04/27 06:54:54;;;;;;;0.70;0.70;;;9.20;99.90;;;;;;5052623;28;20047;-74
2022/04/27 06:57:20;;;;;;;0.17;0.17;;;9.20;99.90;;;;;;5047300;28;20041;-73
2022/04/27 06:59:45;;;;;;;1.80;1.02;;;9.30;99.90;;;;;;5040826;28;20112;-73
2022/04/27 07:02:14;;;;;;;0.45;0.45;;;9.10;99.90;;;;;;5041963;28;20055;-73
2022/04/27 07:04:51;;;;;;;10.02;1.83;;;9.20;99.90;;;;;;5031187;28;20029;-74
2022/04/27 07:07:17;;;;;;;0.60;0.60;;;9.40;99.90;;;;;;5030660;28;20033;-74
2022/04/27 07:09:43;;;;;;;1.58;1.15;;;9.60;99.90;;;;;;5041959;28;20533;-73
2022/04/27 07:12:09;;;;;;;1.00;1.00;;;9.50;99.90;;;;;;5041652;28;20493;-73
2022/04/27 07:14:34;;;;;;;3.13;1.45;;;9.30;99.90;;;;;;5032469;28;20115;-73
2022/04/27 07:17:01;;;;;;;5.88;5.47;;;9.20;99.90;;;;;;5030502;28;20472;-73
2022/04/27 07:19:27;;;;;;;0.68;0.68;;;9.30;99.90;;;;;;5041447;28;20033;-74
2022/04/27 07:21:53;;;;;;;0.20;0.20;;;9.30;99.90;;;;;;5041202;28;20025;-74
2022/04/27 07:24:20;;;;;;;0.40;0.40;;;9.40;99.90;;;;;;5030755;28;20036;-76
2022/04/27 07:26:46;;;;;;;0.73;0.73;;;9.30;99.90;;;;;;5041083;28;20029;-74
2022/04/27 07:29:12;;;;;;;0.65;0.65;;;9.40;99.90;;;;;;5041754;28;20032;-74
2022/04/27 07:31:37;;;;;;;2.40;2.20;;;9.30;99.90;;;;;;5013975;28;20036;-74
2022/04/27 07:34:03;;;;;;;0.10;0.10;;;9.10;99.90;;;;;;5016967;28;20086;-74
2022/04/27 07:36:29;;;;;;;0.63;0.63;;;9.20;99.90;;;;;;5030197;28;20032;-73
2022/04/27 07:38:55;;;;;;;4.85;3.20;;;9.20;99.90;;;;;;5041342;28;20453;-73
2022/04/27 07:41:20;;;;;;;1.45;1.35;;;9.30;99.90;;;;;;5041123;28;20112;-74
2022/04/27 07:43:46;;;;;;;0.17;0.17;;;9.50;99.90;;;;;;5041494;28;20041;-73
2022/04/27 07:46:12;;;;;;;2.85;1.70;;;10.00;99.90;;;;;;5040692;28;20083;-74
2022/04/27 07:48:37;;;;;;;0.10;0.10;;;9.90;99.90;;;;;;5030721;28;20021;-74
2022/04/27 07:51:05;;;;;;;0.20;0.20;;;10.10;99.90;;;;;;5040822;28;20043;-73
2022/04/27 07:53:31;;;;;;;0.10;0.10;;;10.40;99.90;;;;;;5041169;28;20036;-73
2022/04/27 07:55:57;;;;;;;0.40;0.40;;;10.50;99.90;;;;;;5041260;28;20029;-73
2022/04/27 07:58:22;;;;;;;0.20;0.20;;;10.50;99.90;;;;;;5029381;28;20025;-73
2022/04/27 08:00:48;;;;;;;0.10;0.10;;;10.50;99.90;;;;;;5041250;28;20498;-73
2022/04/27 08:03:14;;;;;;;2.03;1.83;;;10.60;99.90;;;;;;5040930;28;20033;-74
2022/04/27 08:05:39;;;;;;;0.10;0.10;;;10.60;99.90;;;;;;5031258;28;20041;-73
2022/04/27 08:08:06;;;;;;;2.78;2.15;;;10.40;99.90;;;;;;5029966;28;20406;-74
2022/04/27 08:10:32;;;;;;;4.18;2.28;;;10.20;99.90;;;;;;5030833;28;20497;-73
2022/04/27 08:12:58;;;;;;;0.10;0.10;;;9.90;99.90;;;;;;5040522;28;20216;-74
2022/04/27 08:15:25;;;;;;;0.22;0.22;;;9.90;99.90;;;;;;5041546;28;20434;-73
2022/04/27 08:17:58;;;;;;;0.40;0.40;;;9.90;99.90;;;;;;5029784;28;20450;-74
2022/04/27 08:23:11;;;;;;;0.15;0.15;;;10.10;99.90;;;;;;5040751;28;20029;-74
2022/04/27 08:25:38;;;;;;;1.30;0.90;;;10.80;99.90;;;;;;5033090;28;20504;-73
2022/04/27 08:28:08;;;;;;;0.55;0.55;;;11.40;99.90;;;;;;5031385;28;20494;-73
2022/04/27 08:30:36;;;;;;;0.20;0.20;;;11.90;99.90;;;;;;5040510;28;20538;-74
2022/04/27 08:33:03;;;;;;;0.17;0.17;;;11.80;99.90;;;;;;5039648;28;20021;-73
2022/04/27 08:35:31;;;;;;;1.75;0.65;;;12.20;99.90;;;;;;5041083;28;20037;-74
2022/04/27 08:37:57;;;;;;;0.20;0.20;;;12.00;99.90;;;;;;5013630;28;20465;-73
2022/04/27 08:40:24;;;;;;;0.43;0.43;;;11.80;99.90;;;;;;5031110;28;20025;-74
2022/04/27 08:42:51;;;;;;;0.65;0.65;;;11.60;99.90;;;;;;5031744;28;20534;-73
2022/04/27 08:45:17;;;;;;;1.98;1.23;;;11.50;99.90;;;;;;5040538;28;20059;-74
2022/04/27 08:47:45;;;;;;;0.20;0.20;;;11.40;99.90;;;;;;5039648;28;20937;-73
2022/04/27 08:50:18;;;;;;;0.10;0.10;;;11.20;99.90;;;;;;5041136;28;20029;-72
2022/04/27 08:52:45;;;;;;;0.38;0.30;;;11.00;99.90;;;;;;5040177;28;20112;-73
2022/04/27 08:55:11;;;;;;;0.63;0.63;;;10.90;99.90;;;;;;5028778;28;20029;-73
2022/04/27 08:57:38;;;;;;;3.13;0.65;;;11.00;99.90;;;;;;5030215;28;20815;-76
2022/04/27 09:00:06;;;;;;;0.65;0.65;;;11.00;99.90;;;;;;5039655;28;20029;-75
2022/04/27 09:02:32;;;;;;;0.30;0.30;;;10.90;99.90;;;;;;5039448;28;20029;-74
2022/04/27 09:05:12;;;;;;;0.20;0.20;;;10.60;99.90;;;;;;5014114;28;20033;-74
2022/04/27 09:07:52;;;;;;;0.10;0.10;;;10.60;99.90;;;;;;5029277;28;20033;-74
2022/04/27 09:10:21;;;;;;;0.40;0.40;;;10.80;99.90;;;;;;5030431;28;20488;-73
2022/04/27 09:12:58;;;;;;;0.80;0.73;;;11.00;99.90;;;;;;5039925;28;20037;-74
2022/04/27 09:15:26;;;;;;;0.10;0.10;;;10.90;99.90;;;;;;5040570;28;20052;-73
2022/04/27 09:20:49;;;;;;;0.10;0.10;;;12.40;99.90;;;;;;5029461;28;20029;-73
2022/04/27 09:23:26;;;;;;;1.00;0.88;;;13.60;99.90;;;;;;5041532;28;20031;-74
2022/04/27 09:25:55;;;;;;;0.30;0.30;;;14.00;96.80;;;;;;5044227;28;20059;-73
2022/04/27 09:28:26;;;;;;;0.28;0.28;;;13.70;93.50;;;;;;5032678;28;20135;-74
2022/04/27 09:30:53;;;;;;;0.47;0.47;;;14.00;93.90;;;;;;5034086;28;20057;-73
2022/04/27 09:33:36;;;;;;;0.30;0.30;;;14.70;91.10;;;;;;5035697;28;20036;-73
2022/04/27 09:36:19;;;;;;;1.27;0.40;;;15.20;89.60;;;;;;5016192;28;20849;-74
2022/04/27 09:38:45;;;;;;;9.43;1.52;;;15.40;88.10;;;;;;5044052;28;20033;-73
2022/04/27 09:41:11;;;;;;;0.20;0.20;;;14.50;87.10;;;;;;5045130;28;20151;-73
2022/04/27 09:43:41;;;;;;;3.15;2.25;;;13.40;91.00;;;;;;5043695;28;20035;-74
2022/04/27 09:46:19;;;;;;;1.05;0.93;;;13.20;92.50;;;;;;5043534;28;20025;-74
2022/04/27 09:48:49;;;;;;;1.55;1.45;;;13.00;93.20;;;;;;5042608;28;20021;-73
2022/04/27 09:51:15;;;;;;;0.40;0.40;;;12.90;92.70;;;;;;5033396;28;20048;-73
2022/04/27 09:53:47;;;;;;;0.60;0.60;;;12.70;90.90;;;;;;5043589;28;20484;-74
2022/04/27 09:56:14;;;;;;;0.30;0.30;;;12.50;92.30;;;;;;5042019;28;20412;-73
2022/04/27 09:58:44;;;;;;;0.10;0.10;;;12.60;91.40;;;;;;5040580;28;20163;-74
2022/04/27 10:01:16;;;;;;;0.20;0.20;;;12.60;91.30;;;;;;5042777;28;20514;-75
2022/04/27 10:03:48;;;;;;;0.10;0.10;;;12.70;90.70;;;;;;5043010;28;20389;-73
2022/04/27 10:06:15;;;;;;;0.43;0.43;;;13.00;91.00;;;;;;5043443;28;20497;-73
2022/04/27 10:08:42;;;;;;;0.10;0.10;;;13.90;90.10;;;;;;5029711;28;20070;-73
2022/04/27 10:11:11;;;;;;;1.20;0.85;;;14.90;84.30;;;;;;5034776;28;20029;-73
2022/04/27 10:13:37;;;;;;;0.15;0.15;;;15.70;79.90;;;;;;5043031;28;20025;-74
2022/04/27 10:16:04;;;;;;;0.77;0.32;;;16.20;79.10;;;;;;5043342;28;20033;-74
2022/04/27 10:18:30;;;;;;;0.20;0.20;;;16.50;75.80;;;;;;5042507;28;20500;-74
2022/04/27 10:20:56;;;;;;;1.17;1.17;;;16.80;75.90;;;;;;5043633;28;20029;-73
2022/04/27 10:23:28;;;;;;;0.30;0.30;;;16.50;74.00;;;;;;5013926;28;20350;-74
2022/04/27 10:26:15;;;;;;;0.05;0.05;;;15.90;75.20;;;;;;5041856;28;20036;-74
2022/04/27 10:28:54;;;;;;;1.85;1.55;;;15.00;77.70;;;;;;5033129;28;20090;-74
2022/04/27 10:31:56;;;;;;;0.57;0.57;;;14.70;79.20;;;;;;5043061;28;20044;-73
2022/04/27 10:34:23;;;;;;;0.10;0.10;;;13.90;79.40;;;;;;5041809;28;20040;-73
2022/04/27 10:36:50;;;;;;;0.00;0.00;;;13.70;77.10;;;;;;5042305;28;20036;-73
2022/04/27 10:39:19;;;;;;;0.30;0.30;;;13.70;81.80;;;;;;5015561;28;20418;-73
2022/04/27 10:41:55;;;;;;;0.10;0.10;;;13.60;80.70;;;;;;5031024;28;20041;-74
2022/04/27 10:44:21;;;;;;;0.10;0.10;;;13.40;80.70;;;;;;5032579;28;20025;-74
2022/04/27 10:46:47;;;;;;;0.20;0.20;;;13.60;82.60;;;;;;5032364;28;20037;-73
2022/04/27 10:49:27;;;;;;;0.30;0.30;;;13.70;81.50;;;;;;5031186;28;20526;-73
2022/04/27 10:51:59;;;;;;;1.42;1.42;;;13.60;81.30;;;;;;5015257;28;20048;-73
2022/04/27 10:54:27;;;;;;;0.20;0.20;;;13.50;80.50;;;;;;5032863;28;20488;-74
2022/04/27 10:56:53;;;;;;;0.30;0.30;;;13.40;82.00;;;;;;5041793;28;20036;-73
2022/04/27 11:00:01;;;;;;;0.20;0.20;;;13.10;83.20;;;;;;5032435;28;20346;-74
2022/04/27 11:02:39;;;;;;;0.10;0.10;;;13.30;82.90;;;;;;5041865;28;20442;-73
2022/04/27 11:05:20;;;;;;;11.40;2.90;;;13.10;83.80;;;;;;5029836;28;20469;-73
2022/04/27 11:08:06;;;;;;;0.45;0.45;;;13.10;84.60;;;;;;5041721;28;20033;-73
2022/04/27 11:10:32;;;;;;;0.28;0.28;;;13.20;86.10;;;;;;5031555;28;20040;-74
2022/04/27 11:12:57;;;;;;;0.15;0.15;;;13.00;88.40;;;;;;5041393;28;20041;-74
2022/04/27 11:15:25;;;;;;;0.20;0.20;;;13.00;90.20;;;;;;5032832;28;20048;-73
2022/04/27 11:17:56;;;;;;;0.10;0.10;;;12.80;89.10;;;;;;5032092;28;20609;-73
2022/04/27 11:20:36;;;;;;;0.10;0.10;;;12.70;89.80;;;;;;5040732;28;20170;-73
2022/04/27 11:23:07;;;;;;;0.10;0.10;;;12.60;87.00;;;;;;5041066;28;20673;-74
2022/04/27 11:25:38;;;;;;;0.10;0.10;;;12.50;85.10;;;;;;5039877;28;20529;-73
2022/04/27 11:28:07;;;;;;;0.20;0.20;;;12.50;85.10;;;;;;5041571;28;20040;-74
2022/04/27 11:30:34;;;;;;;1.67;0.85;;;12.50;86.40;;;;;;5041277;28;20036;-74
2022/04/27 11:33:01;;;;;;;0.20;0.20;;;12.20;87.50;;;;;;5041182;28;20029;-73
2022/04/27 11:35:38;;;;;;;0.10;0.10;;;12.00;89.00;;;;;;5032058;28;20144;-74
2022/04/27 11:38:04;;;;;;;0.73;0.57;;;12.00;90.20;;;;;;5039831;28;21036;-73
2022/04/27 11:40:36;;;;;;;0.13;0.13;;;11.80;90.90;;;;;;5031547;28;20033;-73
2022/04/27 11:43:04;;;;;;;0.45;0.45;;;11.70;91.10;;;;;;5041190;28;20303;-74
2022/04/27 11:45:31;;;;;;;0.85;0.85;;;11.80;91.30;;;;;;5040723;28;20548;-73
2022/04/27 11:47:57;;;;;;;4.30;0.60;;;11.90;90.60;;;;;;5029338;28;20044;-73
2022/04/27 11:50:23;;;;;;;4.20;1.13;;;12.00;90.70;;;;;;5031349;28;20098;-73
2022/04/27 11:53:11;;;;;;;0.20;0.20;;;12.00;90.90;;;;;;5041269;28;20551;-73
2022/04/27 11:55:38;;;;;;;0.10;0.10;;;12.10;91.00;;;;;;5040666;28;20025;-73
2022/04/27 11:58:06;;;;;;;0.10;0.10;;;12.10;90.80;;;;;;5031390;28;20041;-73
2022/04/27 12:00:34;;;;;;;0.10;0.10;;;12.20;91.30;;;;;;5040589;28;20029;-74
2022/04/27 12:03:04;;;;;;;0.10;0.10;;;12.10;90.90;;;;;;5041617;28;20463;-73
2022/04/27 12:05:35;;;;;;;0.10;0.10;;;12.00;91.10;;;;;;5030216;28;20028;-73
2022/04/27 12:08:06;;;;;;;0.10;0.10;;;12.00;92.00;;;;;;5041606;28;20029;-73
2022/04/27 12:10:41;;;;;;;1.38;1.27;;;11.90;91.90;;;;;;5040948;28;20029;-73
2022/04/27 12:13:11;;;;;;;1.38;1.27;;;12.00;92.40;;;;;;5033061;28;20113;-73
2022/04/27 12:15:40;;;;;;;0.10;0.10;;;12.00;93.00;;;;;;5030860;28;20487;-73
2022/04/27 12:18:06;;;;;;;1.42;0.98;;;12.30;93.10;;;;;;5041333;28;20029;-73
2022/04/27 12:20:39;;;;;;;0.47;0.47;;;12.40;92.80;;;;;;5030566;28;20033;-73
2022/04/27 12:23:07;;;;;;;7.82;3.47;;;12.30;92.40;;;;;;5030461;28;20075;-74
2022/04/27 12:25:55;;;;;;;0.43;0.43;;;12.40;92.00;;;;;;5040288;28;20107;-73
2022/04/27 12:28:34;;;;;;;0.40;0.40;;;12.50;92.00;;;;;;5029406;28;20029;-74
2022/04/27 12:31:05;;;;;;;0.20;0.20;;;12.50;92.20;;;;;;5030650;28;20033;-74
2022/04/27 12:33:34;;;;;;;2.45;1.55;;;12.60;91.90;;;;;;5040916;28;20058;-74
2022/04/27 12:39:06;;;;;;;4.63;1.20;;;12.70;90.30;;;;;;5029835;28;20041;-73
2022/04/27 12:41:44;;;;;;;2.85;1.60;;;12.80;90.40;;;;;;5027106;28;20086;-73
2022/04/27 12:44:11;;;;;;;0.10;0.10;;;12.90;90.60;;;;;;5041486;28;20037;-74
2022/04/27 12:46:38;;;;;;;0.10;0.10;;;12.90;90.70;;;;;;5040253;28;20082;-74
2022/04/27 12:49:06;;;;;;;0.98;0.82;;;13.00;90.80;;;;;;5041307;28;20504;-73
2022/04/27 12:51:35;;;;;;;0.10;0.10;;;13.00;90.10;;;;;;5015495;28;20025;-73
2022/04/27 12:54:05;;;;;;;0.65;0.50;;;13.30;89.50;;;;;;5030497;28;20064;-74
2022/04/27 12:56:35;;;;;;;0.20;0.20;;;13.20;89.10;;;;;;5039023;28;20025;-74
2022/04/27 12:59:10;;;;;;;0.13;0.13;;;13.30;89.80;;;;;;5027420;28;20448;-74
2022/04/27 13:01:37;;;;;;;0.20;0.20;;;13.50;89.20;;;;;;5040182;28;20485;-74
2022/04/27 13:04:03;;;;;;;0.30;0.30;;;13.40;88.90;;;;;;5041088;28;20032;-74
2022/04/27 13:06:30;;;;;;;0.30;0.30;;;13.70;87.20;;;;;;5029639;28;20032;-73
2022/04/27 13:11:55;;;;;;;0.10;0.10;;;13.60;83.70;;;;;;5039858;28;20037;-73
2022/04/27 13:12:04;;;;;;;0.25;0.25;;;13.70;84.50;;;;;;5039390;28;20029;-74
2022/04/27 13:14:31;;;;;;;1.05;0.68;;;14.10;84.00;;;;;;5039987;28;20033;-76
2022/04/27 13:16:56;;;;;;;0.75;0.75;;;14.10;82.10;;;;;;5040434;28;20028;-74
2022/04/27 13:19:23;;;;;;;2.42;0.95;;;13.90;82.90;;;;;;5038929;28;20052;-74